Flight Track Log - Related Links

Times and Time Zones

All times are in EST time to prevent confusion due to time zone crossing. See the N343CW flight status page for this flight to view local times or setup timezone preferences in your user account.

Time Position Orientation Groundspeed Altitude Reporting Facility
EST Latitude Longitude Course Direction KTS MPH feet Rate Location/Type
Sun 10:21:44 AM 40.2147 -83.4072 138° Southeast 167 192 6,500  Level Indianapolis Center
Sun 10:21:48 AM 40.2131 -83.4053 138° Southeast 171 197 6,400 1,385 Descending Indianapolis Center
Sun 10:22:49 AM 40.2347 -83.4594 298° West 169 194 8,000 1,707 Climbing Indianapolis Center
Sun 10:23:51 AM 40.2597 -83.5258 296° West 170 196 9,900 1,016 Climbing Indianapolis Center
Sun 10:24:53 AM 40.2822 -83.5842 297° West 176 203 10,100 97 Climbing Indianapolis Center
Sun 10:25:55 AM 40.3122 -83.6519 300° West 207 238 10,100 -48 Level Indianapolis Center
Sun 10:26:57 AM 40.3447 -83.7231 301° West 222 255 10,000 -48 Descending Indianapolis Center
Sun 10:27:59 AM 40.3761 -83.7947 300° West 226 260 10,000  Level Indianapolis Center
Sun 10:29:01 AM 40.4078 -83.8667 300° West 229 264 10,000 49 Level Indianapolis Center
Sun 10:30:02 AM 40.4475 -83.9506 302° West 226 260 10,100  Climbing Indianapolis Center
Sun 10:31:04 AM 40.4722 -84.0275 293° West 229 264 10,000 -48 Descending Indianapolis Center
Sun 10:32:06 AM 40.4967 -84.1039 293° West 227 261 10,000 48 Level Indianapolis Center
Sun 10:33:08 AM 40.5247 -84.1781 296° West 228 262 10,100  Climbing Indianapolis Center
Sun 10:34:10 AM 40.5489 -84.2558 292° West 229 264 10,000  Descending Indianapolis Center
Sun 10:35:12 AM 40.5767 -84.3308 296° West 230 265 10,100  Climbing Indianapolis Center
Sun 10:36:13 AM 40.6075 -84.4228 294° West 231 266 10,000  Descending Indianapolis Center
Sun 10:37:15 AM 40.6350 -84.4994 295° West 233 268 10,100 48 Climbing Indianapolis Center
Sun 10:38:17 AM 40.6603 -84.5786 293° West 235 270 10,100  Level Indianapolis Center
Sun 10:39:17 AM 40.6864 -84.6483 296° West 236 272 10,100 -344 Level Chicago Center
Sun 10:40:19 AM 40.7131 -84.7281 294° West 237 273 9,400 -968 Descending Chicago Center
Sun 10:41:21 AM 40.7442 -84.8203 294° West 231 266 8,100 -1,122 Descending Chicago Center
Sun 10:42:22 AM 40.7711 -84.8978 295° West 231 266 7,100 -976 Descending Chicago Center
Sun 10:43:24 AM 40.7975 -84.9778 294° West 236 272 6,100 -968 Descending Chicago Center
Sun 10:44:26 AM 40.8219 -85.0522 293° West 230 265 5,100 -968 Descending Chicago Center
Sun 10:45:28 AM 40.8478 -85.1253 295° West 224 258 4,100 -968 Descending Chicago Center
Sun 10:46:30 AM 40.8728 -85.1983 294° West 221 254 3,100 -829 Descending Chicago Center
Sun 10:47:31 AM 40.8983 -85.2631 298° West 214 246 2,400 -244 Descending Chicago Center
Sun 10:48:33 AM 40.9336 -85.3214 309° West 191 220 2,600 145 Climbing Chicago Center
Sun 10:49:35 AM 40.9250 -85.3803 259° West 194 223 2,700  Climbing Chicago Center
Sun 10:50:37 AM 40.8875 -85.4233 221° Southwest 187 215 2,600  Descending Chicago Center
Sun 10:51:39 AM 40.8561 -85.3789 133° Southeast 176 203 2,700 49 Climbing Chicago Center
Sun 10:52:40 AM 40.8708 -85.3278 69° East 164 189 2,700 -49 Level Chicago Center
Sun 10:53:42 AM 40.9011 -85.2886 44° Northeast 158 182 2,600 -290 Descending Chicago Center
Sun 10:54:44 AM 40.9297 -85.2528 43° Northeast 148 170 2,100 -484 Descending Chicago Center

Login

Don't have an account? Register now (free) for customized features, flight alerts, and more!